createdAt,value
2018-06-19T05:59:36.836Z,50.29
2018-06-19T06:00:40.755Z,49.54
2018-06-19T06:01:45.368Z,50.12
2018-06-19T06:02:49.988Z,49.05
2018-06-19T06:03:53.914Z,48.59
2018-06-19T06:04:58.152Z,48.47
2018-06-19T06:06:03.270Z,48.72
2018-06-19T06:07:07.520Z,48.57
2018-06-19T06:08:11.698Z,48.30
2018-06-19T06:09:16.337Z,48.48
2018-06-19T06:10:20.338Z,48.91
2018-06-19T06:11:26.252Z,48.69
2018-06-19T06:12:31.458Z,48.70
2018-06-19T06:13:37.162Z,48.09
2018-06-19T06:14:40.999Z,47.93
2018-06-19T06:15:45.515Z,48.67
2018-06-19T06:16:49.871Z,48.00
2018-06-19T06:17:54.694Z,48.90
2018-06-19T06:18:58.905Z,48.52
2018-06-19T06:20:03.576Z,48.77
2018-06-19T06:21:07.540Z,48.41
2018-06-19T06:22:11.479Z,48.70
2018-06-19T06:23:17.012Z,48.04
2018-06-19T06:24:21.314Z,48.35
2018-06-19T06:25:25.122Z,48.00
2018-06-19T06:26:29.089Z,48.75
2018-06-19T06:27:34.761Z,48.37
2018-06-19T06:28:39.284Z,48.05
2018-06-19T06:29:43.872Z,47.87
2018-06-19T06:30:48.331Z,47.86
2018-06-19T06:31:52.621Z,48.21
2018-06-19T06:32:56.431Z,48.21
2018-06-19T06:34:00.267Z,48.82
2018-06-19T06:35:04.066Z,48.20
2018-06-19T06:36:07.882Z,48.80
2018-06-19T06:37:12.027Z,48.02
2018-06-19T06:38:15.861Z,48.35
2018-06-19T06:39:20.174Z,48.25
2018-06-19T06:40:25.097Z,48.07
2018-06-19T06:41:28.890Z,48.18
2018-06-19T06:42:32.698Z,47.94
2018-06-19T06:43:36.793Z,48.08
2018-06-19T06:44:40.560Z,48.09
2018-06-19T06:45:44.424Z,48.63
2018-06-19T06:46:48.321Z,47.79
2018-06-19T06:47:52.381Z,48.79
2018-06-19T06:48:56.309Z,48.75
2018-06-19T06:50:00.469Z,48.25
2018-06-19T06:51:05.699Z,48.03
2018-06-19T06:52:09.531Z,47.76
2018-06-19T06:53:13.623Z,47.97
2018-06-19T06:54:17.583Z,48.59
2018-06-19T06:55:22.091Z,48.03
2018-06-19T06:56:26.273Z,48.12
2018-06-19T06:57:30.281Z,48.43
2018-06-19T06:58:34.050Z,49.04
2018-06-19T06:59:38.735Z,48.24
2018-06-19T07:00:42.622Z,48.91
2018-06-19T07:01:46.495Z,48.55
2018-06-19T07:02:50.658Z,49.48
2018-06-19T07:03:54.494Z,48.35
2018-06-19T07:04:58.359Z,48.49
2018-06-19T07:06:02.286Z,48.25
2018-06-19T07:07:06.865Z,48.55
2018-06-19T07:08:10.716Z,48.84
2018-06-19T07:09:15.250Z,48.31
2018-06-19T07:10:20.875Z,48.76
2018-06-19T07:11:26.121Z,48.56
2018-06-19T07:12:30.000Z,48.39
2018-06-19T07:13:33.938Z,48.13
2018-06-19T07:14:39.223Z,48.10
2018-06-19T07:15:43.450Z,48.06
2018-06-19T07:16:49.328Z,48.51
2018-06-19T07:17:53.205Z,49.15
2018-06-19T07:18:57.233Z,48.85
2018-06-19T07:20:05.689Z,48.46
2018-06-19T07:21:12.431Z,48.89
2018-06-19T07:22:17.018Z,49.17
2018-06-19T07:23:20.894Z,49.14
2018-06-19T07:24:25.401Z,49.23
2018-06-19T07:25:29.365Z,48.84
2018-06-19T07:26:34.545Z,48.84
2018-06-19T07:27:39.019Z,48.27
2018-06-19T07:28:43.101Z,48.39
2018-06-19T07:29:47.641Z,48.54
2018-06-19T07:30:51.449Z,48.48
2018-06-19T07:31:55.407Z,49.19
2018-06-19T07:32:59.217Z,48.38
2018-06-19T07:34:04.697Z,48.96
2018-06-19T07:35:09.438Z,49.21
2018-06-19T07:36:13.627Z,48.54
2018-06-19T07:37:17.827Z,48.78
2018-06-19T07:38:21.690Z,48.70
2018-06-19T07:39:26.171Z,49.18
2018-06-19T07:40:31.559Z,49.33
2018-06-19T07:41:36.705Z,49.18
2018-06-19T07:42:42.722Z,49.10
2018-06-19T07:43:46.524Z,49.14
2018-06-19T07:44:50.420Z,48.23
2018-06-19T07:45:54.865Z,48.49
2018-06-19T07:46:59.464Z,49.21
2018-06-19T07:48:03.804Z,49.21
2018-06-19T07:49:07.636Z,48.34
2018-06-19T07:50:11.453Z,48.38
2018-06-19T07:51:16.240Z,49.30
2018-06-19T07:52:20.819Z,49.23
2018-06-19T07:53:24.739Z,49.26
2018-06-19T07:54:30.015Z,48.37
2018-06-19T07:55:34.758Z,49.19
2018-06-19T07:56:39.445Z,48.37
2018-06-19T07:57:43.400Z,49.01
2018-06-19T07:58:47.185Z,48.38
2018-06-19T07:59:52.241Z,48.40
2018-06-19T08:00:58.481Z,49.10
2018-06-19T08:02:02.320Z,48.48
2018-06-19T08:03:06.094Z,48.18
2018-06-19T08:04:09.928Z,48.47
2018-06-19T08:05:15.042Z,48.29
2018-06-19T08:06:19.363Z,48.09
2018-06-19T08:07:24.579Z,49.21
2018-06-19T08:08:29.858Z,48.52
2018-06-19T08:09:34.421Z,49.00
2018-06-19T08:10:38.313Z,48.53
2018-06-19T08:11:42.911Z,48.96
2018-06-19T08:12:49.779Z,48.55
2018-06-19T08:13:55.355Z,48.48
2018-06-19T08:14:59.347Z,49.06
2018-06-19T08:16:04.903Z,48.62
2018-06-19T08:17:10.022Z,49.01
2018-06-19T08:18:14.710Z,49.12
2018-06-19T08:19:19.919Z,49.20
2018-06-19T08:20:23.759Z,48.31
2018-06-19T08:21:28.463Z,49.23
2018-06-19T08:22:32.339Z,48.46
2018-06-19T08:23:36.943Z,49.23
2018-06-19T08:24:40.786Z,48.27
2018-06-19T08:25:45.563Z,48.74
2018-06-19T08:26:49.854Z,48.95
2018-06-19T08:27:53.693Z,47.89
2018-06-19T08:28:58.793Z,48.90
2018-06-19T08:30:02.870Z,48.56
2018-06-19T08:31:07.629Z,49.07
2018-06-19T08:32:11.439Z,48.77
2018-06-19T08:33:16.016Z,48.51
2018-06-19T08:34:19.901Z,48.62
2018-06-19T08:35:23.771Z,49.17
2018-06-19T08:36:28.647Z,49.34
2018-06-19T08:37:35.698Z,49.12
2018-06-19T08:38:39.572Z,48.22
2018-06-19T08:39:47.316Z,48.18
2018-06-19T08:40:51.940Z,49.04
2018-06-19T08:41:55.721Z,49.19
2018-06-19T08:43:01.521Z,48.57
2018-06-19T08:44:05.395Z,48.63
2018-06-19T08:45:10.898Z,49.15
2018-06-19T08:46:16.240Z,48.13
2018-06-19T08:47:21.423Z,49.13
2018-06-19T08:48:26.178Z,48.07
2018-06-19T08:49:30.372Z,48.93
2018-06-19T08:50:35.240Z,48.70
2018-06-19T08:51:41.196Z,48.92
2018-06-19T08:52:48.247Z,49.02
2018-06-19T08:53:52.010Z,49.04
2018-06-19T08:54:55.805Z,49.10
2018-06-19T08:56:00.215Z,49.09
2018-06-19T08:57:04.564Z,48.63
2018-06-19T08:58:09.315Z,49.16
2018-06-19T08:59:13.729Z,49.06
2018-06-19T09:00:17.569Z,48.47
2018-06-19T09:01:22.817Z,48.17
2018-06-19T09:02:26.645Z,48.20
2018-06-19T09:03:30.490Z,48.62
2018-06-19T09:04:34.308Z,48.13
2018-06-19T09:05:38.657Z,48.13
2018-06-19T09:06:43.051Z,48.69
2018-06-19T09:07:46.835Z,48.63
2018-06-19T09:08:50.767Z,49.14
2018-06-19T09:09:54.675Z,48.41
2018-06-19T09:10:59.249Z,48.89
2018-06-19T09:12:03.998Z,48.13
2018-06-19T09:13:08.928Z,48.05
2018-06-19T09:14:13.400Z,48.27
2018-06-19T09:15:17.254Z,48.35
2018-06-19T09:16:21.065Z,48.85
2018-06-19T09:17:25.235Z,48.94
2018-06-19T09:18:29.911Z,49.20
2018-06-19T09:19:34.297Z,48.32
2018-06-19T09:20:38.135Z,49.86
2018-06-19T09:21:42.014Z,48.13
2018-06-19T09:22:47.229Z,48.03
2018-06-19T09:23:51.596Z,48.42
2018-06-19T09:24:55.671Z,48.29
2018-06-19T09:26:00.215Z,48.39
2018-06-19T09:27:03.996Z,48.30
2018-06-19T09:28:07.916Z,48.32
2018-06-19T09:29:12.375Z,48.32
2018-06-19T09:30:16.803Z,48.28
2018-06-19T09:31:21.022Z,48.14
2018-06-19T09:32:25.207Z,48.90
2018-06-19T09:33:32.729Z,48.32
2018-06-19T11:56:56.730Z,52.17
2018-06-19T11:58:01.455Z,52.05
2018-06-19T11:59:05.294Z,51.86
2018-06-19T12:00:09.305Z,50.28
2018-06-19T12:01:14.505Z,50.53
2018-06-19T12:02:18.837Z,51.15
2018-06-19T12:03:22.790Z,50.75
2018-06-19T12:04:26.698Z,50.20
2018-06-19T12:05:31.504Z,50.83
2018-06-19T12:06:35.373Z,49.88
2018-06-19T12:07:42.409Z,50.74
2018-06-19T12:08:47.473Z,50.08
2018-06-19T12:09:51.297Z,50.26
2018-06-19T12:10:55.219Z,50.66
2018-06-19T12:11:59.091Z,50.56
2018-06-19T12:13:03.433Z,50.05
2018-06-19T12:14:07.262Z,50.12
2018-06-19T12:15:12.383Z,50.55
2018-06-19T12:16:19.560Z,50.59
2018-06-19T12:17:23.459Z,50.55
2018-06-19T12:18:27.712Z,49.86
2018-06-19T12:19:34.581Z,50.73
2018-06-19T12:20:38.588Z,49.74
2018-06-19T12:21:44.417Z,50.12
2018-06-19T12:22:49.517Z,49.95
2018-06-19T12:23:53.505Z,50.74
2018-06-19T12:24:58.020Z,49.55
2018-06-19T12:26:02.490Z,50.34
2018-06-19T12:27:06.350Z,50.49
2018-06-19T12:28:10.556Z,50.17
2018-06-19T12:29:14.480Z,50.23
2018-06-19T12:30:18.349Z,50.05
2018-06-19T12:31:22.186Z,50.22
2018-06-19T12:32:27.374Z,49.49
2018-06-19T12:33:32.889Z,49.71
2018-06-19T12:34:37.902Z,49.99
2018-06-19T12:35:41.737Z,50.14
2018-06-19T12:36:45.621Z,50.14
2018-06-19T12:37:49.431Z,50.54
2018-06-19T12:38:54.238Z,50.59
2018-06-19T12:39:59.010Z,50.67
2018-06-19T12:41:04.098Z,50.47
2018-06-19T12:42:08.479Z,50.48
2018-06-19T12:43:16.616Z,50.36
2018-06-19T12:44:21.834Z,50.49
2018-06-19T12:45:26.792Z,50.87
2018-06-19T12:46:31.401Z,50.90
2018-06-19T12:47:36.147Z,49.91
2018-06-19T12:48:42.066Z,50.43
2018-06-19T12:49:47.000Z,50.66
2018-06-19T12:50:51.489Z,50.10
2018-06-19T12:51:56.945Z,49.92
2018-06-19T12:53:00.753Z,50.50
2018-06-19T12:54:05.281Z,50.11
2018-06-19T12:55:09.227Z,50.71
2018-06-19T12:56:14.700Z,49.88
2018-06-19T12:57:20.330Z,51.17
2018-06-19T12:58:24.183Z,50.21
2018-06-19T12:59:28.048Z,50.23
2018-06-19T13:00:32.242Z,50.06
2018-06-19T13:01:36.821Z,49.74
2018-06-19T13:02:40.654Z,50.53
2018-06-19T13:03:46.469Z,49.31
2018-06-19T13:04:52.486Z,49.61
2018-06-19T13:05:57.312Z,49.34
2018-06-19T13:07:01.544Z,49.87
2018-06-19T13:08:05.845Z,50.17
2018-06-19T13:09:13.546Z,50.09
2018-06-19T13:10:17.435Z,49.78
2018-06-19T13:11:30.926Z,50.12
2018-06-19T13:12:36.932Z,49.16
2018-06-19T13:13:40.947Z,49.76
2018-06-19T13:14:45.575Z,49.96
2018-06-19T13:15:52.418Z,49.93
2018-06-19T13:16:57.455Z,49.91
2018-06-19T13:18:01.281Z,50.05
2018-06-19T13:19:05.832Z,49.94
2018-06-19T13:20:09.714Z,50.17
2018-06-19T13:21:14.751Z,49.64
2018-06-19T13:22:19.536Z,49.54
2018-06-19T13:23:24.272Z,49.34
2018-06-19T13:24:30.100Z,49.12
2018-06-19T13:25:39.188Z,49.44
2018-06-19T13:26:43.010Z,49.48
2018-06-19T13:27:47.482Z,49.61
2018-06-19T13:28:51.347Z,50.01
2018-06-19T13:29:58.159Z,49.86
2018-06-19T13:31:04.085Z,49.84
2018-06-19T13:32:08.771Z,49.64
2018-06-19T13:33:12.744Z,49.51
2018-06-19T13:34:16.573Z,49.77
2018-06-19T13:35:20.778Z,50.65
2018-06-19T13:36:25.579Z,49.69
2018-06-19T13:37:30.044Z,49.35
2018-06-19T13:38:33.910Z,50.68
2018-06-19T13:39:38.610Z,50.44
2018-06-19T13:40:42.451Z,50.55
2018-06-19T13:41:48.680Z,49.54
2018-06-19T13:42:52.545Z,50.65
2018-06-19T13:43:58.497Z,50.73
2018-06-19T13:45:03.687Z,49.92
2018-06-19T13:46:08.206Z,50.08
2018-06-19T13:47:19.277Z,50.46
2018-06-19T13:48:24.471Z,49.81
2018-06-19T13:49:28.328Z,49.92
2018-06-19T13:50:34.484Z,49.68
2018-06-19T13:51:38.482Z,50.92
2018-06-19T13:52:44.231Z,50.97
2018-06-19T13:53:48.134Z,50.49
2018-06-19T13:54:54.139Z,50.44
2018-06-19T13:55:57.960Z,50.26
2018-06-19T13:57:04.001Z,50.39
2018-06-19T13:58:11.557Z,50.71
2018-06-19T13:59:16.103Z,50.43
2018-06-19T14:00:21.973Z,50.32
2018-06-19T14:01:25.835Z,50.30
2018-06-19T14:02:29.852Z,50.36
2018-06-19T14:03:35.959Z,51.21
2018-06-19T14:04:39.863Z,50.38
2018-06-19T14:05:46.002Z,50.65
2018-06-19T14:06:49.886Z,50.30
2018-06-19T14:07:58.558Z,51.19
2018-06-19T14:09:03.807Z,50.77
2018-06-19T14:10:23.651Z,50.33
2018-06-19T14:11:28.459Z,50.84
2018-06-19T14:12:37.848Z,51.08
2018-06-19T14:13:41.735Z,50.38
2018-06-19T14:14:46.658Z,50.41
2018-06-19T14:15:53.193Z,51.36
2018-06-19T14:16:57.584Z,50.37
2018-06-19T14:18:03.086Z,50.06
2018-06-19T14:19:07.018Z,51.21
2018-06-19T14:20:11.704Z,50.77
2018-06-19T14:21:15.807Z,50.31
2018-06-19T14:22:19.687Z,50.14
2018-06-19T14:23:23.949Z,50.56
2018-06-19T14:24:32.479Z,51.49
2018-06-19T14:25:37.540Z,51.29
2018-06-19T14:26:42.292Z,50.24
2018-06-19T14:27:47.526Z,51.03
2018-06-19T14:28:51.464Z,51.35
2018-06-19T14:30:00.509Z,50.73
2018-06-19T14:31:05.211Z,50.37
2018-06-19T14:32:15.289Z,50.51
2018-06-19T14:34:36.412Z,51.16
2018-06-19T14:35:42.931Z,51.39
2018-06-19T14:36:48.013Z,51.69
2018-06-19T14:37:53.160Z,50.68
2018-06-19T14:38:57.949Z,51.43
2018-06-19T14:40:02.626Z,51.17
2018-06-19T14:41:08.601Z,50.42
2018-06-19T14:42:14.030Z,50.73
2018-06-19T14:43:19.529Z,50.54
2018-06-19T14:44:25.694Z,50.54
2018-06-19T14:45:32.521Z,51.31
2018-06-19T14:46:40.048Z,50.54
2018-06-19T14:47:45.112Z,51.30
2018-06-19T14:48:49.714Z,50.89
2018-06-19T14:49:54.624Z,50.94
2018-06-19T14:50:58.475Z,51.71
2018-06-19T14:52:02.361Z,51.59
2018-06-19T14:53:07.502Z,51.60
2018-06-19T14:54:12.424Z,51.91
2018-06-19T14:55:16.325Z,50.90
2018-06-19T14:56:21.478Z,50.71
2018-06-19T14:57:25.719Z,51.12
2018-06-19T14:58:30.239Z,50.98
2018-06-19T14:59:39.020Z,50.72
2018-06-19T15:00:43.119Z,51.56
2018-06-19T15:01:48.367Z,50.68
2018-06-19T15:02:53.337Z,50.88
2018-06-19T15:03:57.267Z,51.27
2018-06-19T15:05:02.723Z,50.98
2018-06-19T15:06:06.736Z,50.68
2018-06-19T15:07:10.630Z,51.56
2018-06-19T15:08:17.303Z,50.89
2018-06-19T15:09:23.567Z,50.47
2018-06-19T15:10:29.240Z,51.37
2018-06-19T15:11:34.571Z,50.90
2018-06-19T15:12:38.563Z,51.29
2018-06-19T15:13:43.161Z,50.64
2018-06-19T15:14:47.793Z,51.77
2018-06-19T15:15:51.975Z,50.82
2018-06-19T15:16:56.717Z,51.69
2018-06-19T15:19:14.554Z,51.34
2018-06-19T15:20:18.612Z,51.12
2018-06-19T15:21:23.691Z,51.87
2018-06-19T15:22:28.311Z,51.81
2018-06-19T15:23:33.530Z,51.03
2018-06-19T15:24:37.356Z,50.88
2018-06-19T15:25:42.311Z,51.03
2018-06-19T15:26:46.263Z,51.73
2018-06-19T15:27:52.219Z,51.12
2018-06-19T15:28:56.948Z,50.79
2018-06-19T15:30:00.809Z,50.98
2018-06-19T15:31:05.311Z,51.11
2018-06-19T15:32:09.131Z,50.85
2018-06-19T15:33:13.979Z,51.45
2018-06-19T15:34:19.426Z,50.70
2018-06-19T15:35:23.379Z,51.28
2018-06-19T15:36:27.287Z,50.66
2018-06-19T15:37:31.417Z,50.53
2018-06-19T15:38:35.417Z,50.95
2018-06-19T15:39:40.418Z,50.98
2018-06-19T15:40:45.218Z,51.06
2018-06-19T15:41:49.946Z,50.93
2018-06-19T15:42:55.974Z,50.77
2018-06-19T15:43:59.787Z,51.53
2018-06-19T15:45:03.705Z,51.24
2018-06-19T15:46:07.570Z,51.94
2018-06-19T15:47:11.934Z,51.38
2018-06-19T15:48:16.883Z,51.11
2018-06-19T15:49:20.834Z,51.97
2018-06-19T15:50:27.662Z,51.04
2018-06-19T15:51:36.498Z,51.72
2018-06-19T15:52:40.875Z,51.61
2018-06-19T15:53:45.866Z,51.95
2018-06-19T15:54:49.753Z,51.30
2018-06-19T15:55:54.678Z,52.06
2018-06-19T15:56:59.351Z,51.91
2018-06-19T15:58:03.180Z,50.86
2018-06-19T15:59:09.926Z,50.99
2018-06-19T16:00:14.611Z,51.68
2018-06-19T16:01:20.510Z,51.18
2018-06-19T16:02:24.668Z,51.03
2018-06-19T16:03:30.322Z,51.31
2018-06-19T16:04:37.712Z,51.66
2018-06-19T16:05:42.435Z,51.30
2018-06-19T16:06:58.455Z,51.75
2018-06-19T16:08:07.899Z,51.39
2018-06-19T16:09:13.493Z,51.01
2018-06-19T16:10:17.960Z,51.36
2018-06-19T16:11:22.007Z,51.61
2018-06-19T16:12:33.225Z,51.80
2018-06-19T16:13:39.250Z,50.81
2018-06-19T16:14:50.379Z,50.94
2018-06-19T16:15:54.511Z,51.21
2018-06-19T16:17:00.179Z,51.68
2018-06-19T16:18:04.912Z,51.16
2018-06-19T16:19:15.516Z,50.79
2018-06-19T16:20:23.038Z,51.03
2018-06-19T16:21:27.704Z,50.67
2018-06-19T16:22:36.478Z,50.62
2018-06-19T16:23:41.045Z,51.60
2018-06-19T16:24:44.907Z,51.19
2018-06-19T16:25:49.707Z,50.88
2018-06-19T16:26:53.890Z,51.60
2018-06-19T16:27:59.674Z,50.99
2018-06-19T21:03:56.245Z,52.10
2018-06-19T21:05:06.316Z,52.01
2018-06-19T21:06:11.393Z,52.16
2018-06-19T21:07:16.674Z,51.12
2018-06-19T21:08:28.609Z,51.66
2018-06-19T21:09:38.618Z,51.63
2018-06-19T21:10:42.674Z,50.99
2018-06-19T21:11:46.681Z,50.62
2018-06-19T21:12:51.214Z,50.98
2018-06-19T21:14:01.390Z,50.61
2018-06-19T21:15:07.386Z,51.55
2018-06-19T21:16:12.962Z,50.50
2018-06-19T21:17:17.528Z,51.30
2018-06-19T21:18:22.394Z,50.62
2018-06-19T21:19:29.207Z,51.21
2018-06-19T21:20:33.474Z,51.20
2018-06-19T21:21:39.139Z,50.30
2018-06-19T21:22:42.921Z,51.32
2018-06-19T21:23:48.047Z,51.23
2018-06-19T21:24:52.663Z,51.55
2018-06-19T21:25:57.574Z,50.15
2018-06-19T21:27:01.740Z,50.20
2018-06-19T21:28:07.496Z,51.24
2018-06-19T21:29:13.964Z,50.91
2018-06-19T21:30:17.957Z,50.28
2018-06-19T21:31:26.169Z,50.38
2018-06-19T21:32:31.258Z,50.54
2018-06-19T21:33:38.665Z,50.35
2018-06-19T22:19:42.572Z,53.15
2018-06-19T22:20:47.178Z,51.98
